createdAt,value
2022-08-26T00:01:11.967Z,97.40
2022-08-26T00:03:41.897Z,97.40
2022-08-26T00:06:31.279Z,97.40
2022-08-26T00:09:00.051Z,97.40
2022-08-26T00:11:31.660Z,97.40
2022-08-26T00:14:03.016Z,97.40
2022-08-26T00:16:31.745Z,97.40
2022-08-26T00:19:01.486Z,97.40
2022-08-26T00:21:29.769Z,97.40
2022-08-26T00:23:58.510Z,97.40
2022-08-26T00:26:28.429Z,97.40
2022-08-26T00:28:57.545Z,97.40
2022-08-26T00:31:25.891Z,97.40
2022-08-26T00:33:55.199Z,97.40
2022-08-26T00:36:29.553Z,97.40
2022-08-26T00:38:58.338Z,97.40
2022-08-26T00:41:26.568Z,97.40
2022-08-26T00:43:56.081Z,97.40
2022-08-26T00:46:31.348Z,97.40
2022-08-26T00:49:11.814Z,97.40
2022-08-26T00:51:49.322Z,97.40
2022-08-26T00:54:20.757Z,97.40
2022-08-26T00:56:56.337Z,97.40
2022-08-26T00:59:26.401Z,97.40
2022-08-26T01:01:54.855Z,97.40
2022-08-26T01:04:24.763Z,97.40
2022-08-26T01:06:57.293Z,97.40
2022-08-26T01:09:25.809Z,97.40
2022-08-26T01:11:59.291Z,97.40
2022-08-26T01:14:33.495Z,97.40
2022-08-26T01:17:05.016Z,97.40
2022-08-26T01:19:42.136Z,97.40
2022-08-26T01:22:15.672Z,97.40
2022-08-26T01:24:45.530Z,97.40
2022-08-26T01:27:20.741Z,97.40
2022-08-26T01:29:50.519Z,97.40
2022-08-26T01:32:23.359Z,97.40
2022-08-26T01:34:52.691Z,97.40
2022-08-26T01:37:25.077Z,97.40
2022-08-26T01:39:57.481Z,97.40
2022-08-26T01:42:28.506Z,97.40
2022-08-26T01:45:02.805Z,97.40
2022-08-26T01:47:35.044Z,97.40
2022-08-26T01:50:09.461Z,97.40
2022-08-26T01:52:43.451Z,97.40
2022-08-26T01:55:32.248Z,97.40
2022-08-26T01:58:06.596Z,97.40
2022-08-26T02:00:36.539Z,97.40
2022-08-26T02:03:21.699Z,97.40
2022-08-26T02:05:54.490Z,97.40
2022-08-26T02:08:28.167Z,97.40
2022-08-26T02:10:57.986Z,97.40
2022-08-26T02:13:31.371Z,97.40
2022-08-26T02:16:01.416Z,97.40
2022-08-26T02:18:35.189Z,97.40
2022-08-26T02:21:04.151Z,97.40
2022-08-26T02:23:35.320Z,97.40
2022-08-26T02:26:10.783Z,97.40
2022-08-26T02:28:46.499Z,97.40
2022-08-26T02:31:14.892Z,97.40
2022-08-26T02:33:43.388Z,97.40
2022-08-26T02:36:12.101Z,97.40
2022-08-26T02:38:43.045Z,97.40
2022-08-26T02:41:12.751Z,97.40
2022-08-26T02:43:41.360Z,97.40
2022-08-26T02:46:09.602Z,97.40
2022-08-26T02:48:37.875Z,97.40
2022-08-26T02:51:06.591Z,97.40
2022-08-26T02:53:35.479Z,97.40
2022-08-26T02:56:05.170Z,97.40
2022-08-26T02:58:34.844Z,97.40
2022-08-26T03:01:04.855Z,97.40
2022-08-26T03:03:34.246Z,97.40
2022-08-26T03:06:02.538Z,97.40
2022-08-26T03:08:30.792Z,97.40
2022-08-26T03:10:59.160Z,97.40
2022-08-26T03:13:30.162Z,97.40
2022-08-26T03:16:02.614Z,97.40
2022-08-26T03:18:30.906Z,97.40
2022-08-26T03:20:59.174Z,97.40
2022-08-26T03:23:27.384Z,97.40
2022-08-26T03:25:56.930Z,97.40
2022-08-26T03:28:27.262Z,97.40
2022-08-26T03:30:54.790Z,97.40
2022-08-26T03:33:25.066Z,97.40
2022-08-26T03:35:54.524Z,97.40
2022-08-26T03:38:25.251Z,97.40
2022-08-26T03:40:53.474Z,97.40
2022-08-26T03:43:22.356Z,97.40
2022-08-26T03:45:51.298Z,97.40
2022-08-26T03:48:20.691Z,97.40
2022-08-26T03:50:50.486Z,97.40
2022-08-26T03:53:20.607Z,97.40
2022-08-26T03:55:51.939Z,97.40
2022-08-26T03:58:20.924Z,97.40
2022-08-26T04:00:55.412Z,97.40
2022-08-26T04:03:38.364Z,97.40
2022-08-26T04:06:09.097Z,97.40
2022-08-26T04:08:37.718Z,97.40
2022-08-26T04:11:07.671Z,97.40
2022-08-26T04:13:35.973Z,97.40
2022-08-26T04:16:05.333Z,97.40
2022-08-26T04:18:37.290Z,97.40
2022-08-26T04:21:12.075Z,97.40
2022-08-26T04:23:47.518Z,97.40
2022-08-26T04:26:17.496Z,97.40
2022-08-26T04:28:45.790Z,97.40
2022-08-26T04:31:16.015Z,97.40
2022-08-26T04:33:45.281Z,97.40
2022-08-26T04:36:16.435Z,97.40
2022-08-26T04:38:46.044Z,97.40
2022-08-26T04:41:15.221Z,97.40
2022-08-26T04:43:46.837Z,97.40
2022-08-26T04:46:21.915Z,97.40
2022-08-26T04:48:52.343Z,97.40
2022-08-26T04:51:28.028Z,97.40
2022-08-26T04:53:57.731Z,97.40
2022-08-26T04:56:26.577Z,97.40
2022-08-26T04:58:55.272Z,97.40
2022-08-26T05:01:23.896Z,97.40
2022-08-26T05:03:52.647Z,97.40
2022-08-26T05:06:22.363Z,97.40
2022-08-26T05:08:50.824Z,97.40
2022-08-26T05:11:22.162Z,97.40
2022-08-26T05:13:51.182Z,97.40
2022-08-26T05:16:19.541Z,97.40
2022-08-26T05:18:48.681Z,97.40
2022-08-26T05:21:28.969Z,97.40
2022-08-26T05:23:58.763Z,97.40
2022-08-26T05:26:30.942Z,97.40
2022-08-26T05:28:59.576Z,97.40
2022-08-26T05:31:31.232Z,97.40
2022-08-26T05:34:00.567Z,97.40
2022-08-26T05:36:35.605Z,97.40
2022-08-26T05:39:07.213Z,97.40
2022-08-26T05:41:38.412Z,97.40
2022-08-26T05:44:10.515Z,97.40
2022-08-26T05:46:40.966Z,97.40
2022-08-26T05:49:12.300Z,97.40
2022-08-26T05:51:45.218Z,97.40
2022-08-26T05:54:14.382Z,97.40
2022-08-26T05:56:49.726Z,97.40
2022-08-26T05:59:23.906Z,97.40
2022-08-26T06:01:52.909Z,97.40
2022-08-26T06:04:21.316Z,97.40
2022-08-26T06:06:51.049Z,97.40
2022-08-26T06:09:19.481Z,97.40
2022-08-26T06:11:48.152Z,97.40
2022-08-26T06:14:17.187Z,97.40
2022-08-26T06:16:46.777Z,97.40
2022-08-26T06:19:17.212Z,97.40
2022-08-26T06:21:54.298Z,97.40
2022-08-26T06:24:40.939Z,97.40
2022-08-26T06:27:13.513Z,97.40
2022-08-26T06:29:42.546Z,97.40
2022-08-26T06:32:10.822Z,97.40
2022-08-26T06:34:39.266Z,97.40
2022-08-26T06:37:09.669Z,97.40
2022-08-26T06:39:40.106Z,97.40
2022-08-26T06:42:09.570Z,97.40
2022-08-26T06:44:40.976Z,97.40
2022-08-26T06:47:09.427Z,97.40
2022-08-26T06:49:38.124Z,97.40
2022-08-26T06:52:09.515Z,97.40
2022-08-26T06:54:42.994Z,97.40
2022-08-26T06:57:11.761Z,97.40
2022-08-26T06:59:40.293Z,97.40
2022-08-26T07:02:35.706Z,97.40
2022-08-26T07:05:04.574Z,97.40
2022-08-26T07:07:34.735Z,97.40
2022-08-26T07:10:09.147Z,96.50
2022-08-26T07:12:41.601Z,95.70
2022-08-26T07:15:15.687Z,95.10
2022-08-26T07:17:44.613Z,93.70
2022-08-26T07:23:10.039Z,92.70
2022-08-26T07:25:42.604Z,91.90
2022-08-26T07:28:12.368Z,90.60
2022-08-26T07:30:42.566Z,86.80
2022-08-26T07:33:11.016Z,85.50
2022-08-26T07:35:39.340Z,82.30
2022-08-26T07:38:09.788Z,80.40
2022-08-26T07:40:38.222Z,77.40
2022-08-26T07:43:06.871Z,75.60
2022-08-26T07:45:36.847Z,72.20
2022-08-26T07:48:05.729Z,71.10
2022-08-26T07:50:50.020Z,69.60
2022-08-26T07:53:20.581Z,67.70
2022-08-26T07:55:49.636Z,64.60
2022-08-26T07:58:18.524Z,62.90
2022-08-26T08:00:47.371Z,62.70
2022-08-26T08:03:15.929Z,60.50
2022-08-26T08:05:46.339Z,59.30
2022-08-26T08:08:26.761Z,55.70
2022-08-26T08:10:58.353Z,57.80
2022-08-26T08:13:28.349Z,57.80
2022-08-26T08:15:56.654Z,53.10
2022-08-26T08:18:24.911Z,51.40
2022-08-26T08:21:04.688Z,53.10
2022-08-26T08:23:34.007Z,53.90
2022-08-26T08:26:06.464Z,50.30
2022-08-26T08:28:36.852Z,49.60
2022-08-26T08:31:06.127Z,50.20
2022-08-26T08:33:35.269Z,49.00
2022-08-26T08:36:07.244Z,47.50
2022-08-26T08:38:37.555Z,46.50
2022-08-26T08:41:07.416Z,46.10
2022-08-26T08:43:43.577Z,44.70
2022-08-26T08:46:15.878Z,41.70
2022-08-26T08:48:48.450Z,44.30
2022-08-26T08:51:31.474Z,43.50
2022-08-26T08:54:00.642Z,40.10
2022-08-26T08:56:34.936Z,39.10
2022-08-26T08:59:15.046Z,39.80
2022-08-26T09:01:57.565Z,36.90
2022-08-26T09:05:15.263Z,38.00
2022-08-26T09:07:50.299Z,38.60
2022-08-26T09:10:36.361Z,36.30
2022-08-26T09:13:09.707Z,34.80
2022-08-26T09:15:53.567Z,36.80
2022-08-26T09:18:59.042Z,35.30
2022-08-26T09:21:28.092Z,34.50
2022-08-26T09:23:57.609Z,35.70
2022-08-26T09:26:31.002Z,31.90
2022-08-26T09:29:03.395Z,33.40
2022-08-26T09:31:35.470Z,35.90
2022-08-26T09:34:17.521Z,37.60
2022-08-26T09:36:48.507Z,39.40
2022-08-26T09:39:37.727Z,40.50
2022-08-26T09:42:14.340Z,43.50
2022-08-26T09:44:59.396Z,45.80
2022-08-26T09:47:31.793Z,47.00
2022-08-26T09:50:09.596Z,49.10
2022-08-26T09:52:40.612Z,51.40
2022-08-26T09:55:16.002Z,52.80
2022-08-26T09:57:51.701Z,54.00
2022-08-26T10:00:40.626Z,56.00
2022-08-26T10:03:17.228Z,56.30
2022-08-26T10:05:56.013Z,56.30
2022-08-26T10:08:27.780Z,58.00
2022-08-26T10:10:58.154Z,61.20
2022-08-26T10:13:34.861Z,65.10
2022-08-26T10:16:13.439Z,70.90
2022-08-26T10:18:47.711Z,74.30
2022-08-26T10:21:25.871Z,77.60
2022-08-26T10:23:58.698Z,77.30
2022-08-26T10:26:34.127Z,77.60
2022-08-26T10:29:13.365Z,81.00
2022-08-26T10:31:51.994Z,83.20
2022-08-26T10:34:21.119Z,90.10
2022-08-26T10:37:16.002Z,92.10
2022-08-26T10:39:57.103Z,90.10
2022-08-26T10:42:35.347Z,91.20
2022-08-26T10:45:11.924Z,90.60
2022-08-26T10:47:50.747Z,94.20
2022-08-26T10:50:21.129Z,95.50
2022-08-26T10:53:05.455Z,93.20
2022-08-26T10:55:42.243Z,93.40
2022-08-26T10:58:32.136Z,96.00
2022-08-26T11:01:29.385Z,95.80
2022-08-26T11:04:11.879Z,93.80
2022-08-26T11:06:40.274Z,95.80
2022-08-26T11:09:10.393Z,95.30
2022-08-26T11:11:50.888Z,97.40
2022-08-26T11:14:53.368Z,95.10
2022-08-26T11:18:05.362Z,96.20
2022-08-26T11:20:39.093Z,97.40
2022-08-26T11:23:50.424Z,97.40
2022-08-26T11:26:43.263Z,97.40
2022-08-26T11:29:13.117Z,97.40
2022-08-26T11:31:57.480Z,97.40
2022-08-26T11:35:00.481Z,97.40
2022-08-26T11:37:37.541Z,97.40
2022-08-26T11:40:14.045Z,97.40
2022-08-26T11:42:45.756Z,97.40
2022-08-26T11:45:26.401Z,97.40
2022-08-26T11:47:55.599Z,93.50
2022-08-26T11:50:27.489Z,91.90
2022-08-26T11:53:02.332Z,86.80
2022-08-26T11:55:31.945Z,76.50
2022-08-26T11:58:02.184Z,71.10
2022-08-26T12:00:50.303Z,69.20
2022-08-26T12:03:23.044Z,67.60
2022-08-26T12:05:55.058Z,58.90
2022-08-26T12:08:31.524Z,57.20
2022-08-26T12:11:10.196Z,56.30
2022-08-26T12:13:39.187Z,56.90
2022-08-26T12:16:08.146Z,57.80
2022-08-26T12:18:38.631Z,53.90
2022-08-26T12:21:17.286Z,55.80
2022-08-26T12:23:50.348Z,59.30
2022-08-26T12:26:26.124Z,62.30
2022-08-26T12:28:59.089Z,61.80
2022-08-26T12:31:32.617Z,62.90
2022-08-26T12:34:05.852Z,59.00
2022-08-26T12:36:41.449Z,63.50
2022-08-26T12:39:14.387Z,65.30
2022-08-26T12:41:50.473Z,63.50
2022-08-26T12:44:53.103Z,64.20
2022-08-26T12:47:35.161Z,66.10
2022-08-26T12:50:18.583Z,66.80
2022-08-26T12:52:59.485Z,67.60
2022-08-26T12:55:40.205Z,68.30
2022-08-26T12:58:28.364Z,69.20
2022-08-26T13:00:59.519Z,69.40
2022-08-26T13:03:43.933Z,69.40
2022-08-26T13:06:27.785Z,67.70
2022-08-26T13:08:59.264Z,67.70
2022-08-26T13:11:32.340Z,68.50
2022-08-26T13:14:03.333Z,70.40
2022-08-26T13:16:36.415Z,70.50
2022-08-26T13:19:10.354Z,71.10
2022-08-26T13:21:47.694Z,71.70
2022-08-26T13:24:20.876Z,71.50
2022-08-26T13:26:51.484Z,71.30
2022-08-26T13:29:20.574Z,72.20
2022-08-26T13:31:49.380Z,72.60
2022-08-26T13:34:20.618Z,72.00
2022-08-26T13:36:50.480Z,74.10
2022-08-26T13:39:19.332Z,73.20
2022-08-26T13:41:48.526Z,72.80
2022-08-26T13:44:18.455Z,72.80
2022-08-26T13:46:46.798Z,72.20
2022-08-26T13:49:15.503Z,72.60
2022-08-26T13:51:43.894Z,74.10
2022-08-26T13:54:12.187Z,72.60
2022-08-26T13:56:40.454Z,73.90
2022-08-26T13:59:08.805Z,73.20
2022-08-26T14:01:39.990Z,72.00
2022-08-26T14:04:08.539Z,72.00
2022-08-26T14:06:37.364Z,70.20
2022-08-26T14:09:05.900Z,70.70
2022-08-26T14:11:50.874Z,70.50
2022-08-26T14:14:22.438Z,70.00
2022-08-26T14:17:00.037Z,69.60
2022-08-26T14:19:30.933Z,69.40
2022-08-26T14:22:00.825Z,68.50
2022-08-26T14:24:29.772Z,68.10
2022-08-26T14:26:58.540Z,68.70
2022-08-26T14:29:27.103Z,65.90
2022-08-26T14:31:58.647Z,66.60
2022-08-26T14:34:27.017Z,65.00
2022-08-26T14:36:55.216Z,63.80
2022-08-26T14:39:23.510Z,62.70
2022-08-26T14:41:56.482Z,62.70
2022-08-26T14:44:28.526Z,59.30
2022-08-26T14:47:01.626Z,58.00
2022-08-26T14:49:31.110Z,56.10
2022-08-26T14:51:59.507Z,55.40
2022-08-26T14:54:28.741Z,53.50
2022-08-26T14:57:00.489Z,52.20
2022-08-26T14:59:31.102Z,51.30
2022-08-26T15:02:01.462Z,51.40
2022-08-26T15:04:30.607Z,50.70
2022-08-26T15:07:00.960Z,49.60
2022-08-26T15:09:31.749Z,51.60
2022-08-26T15:12:00.512Z,52.80
2022-08-26T15:14:32.804Z,53.90
2022-08-26T15:17:02.788Z,54.90
2022-08-26T15:19:31.117Z,55.70
2022-08-26T15:21:59.429Z,57.40
2022-08-26T15:24:28.769Z,57.70
2022-08-26T15:26:57.252Z,58.40
2022-08-26T15:29:25.586Z,58.90
2022-08-26T15:31:55.973Z,59.80
2022-08-26T15:34:27.539Z,61.00
2022-08-26T15:36:56.145Z,62.20
2022-08-26T15:39:24.862Z,62.30
2022-08-26T15:41:53.136Z,63.80
2022-08-26T15:44:21.514Z,65.00
2022-08-26T15:46:52.522Z,65.50
2022-08-26T15:49:23.872Z,66.10
2022-08-26T15:51:53.569Z,67.00
2022-08-26T15:54:24.509Z,67.70
2022-08-26T15:56:53.753Z,69.20
2022-08-26T15:59:23.470Z,71.30
2022-08-26T16:01:52.028Z,72.00
2022-08-26T16:04:20.727Z,73.20
2022-08-26T16:06:52.028Z,73.50
2022-08-26T16:09:24.278Z,73.30
2022-08-26T16:11:53.073Z,73.50
2022-08-26T16:14:21.568Z,74.10
2022-08-26T16:16:50.645Z,74.80
2022-08-26T16:19:19.487Z,76.30
2022-08-26T16:21:49.171Z,76.10
2022-08-26T16:24:17.459Z,78.00
2022-08-26T16:26:47.071Z,81.40
2022-08-26T16:29:17.377Z,80.80
2022-08-26T16:31:45.682Z,81.40
2022-08-26T16:34:14.007Z,78.40
2022-08-26T16:36:42.236Z,75.90
2022-08-26T16:39:10.881Z,74.80
2022-08-26T16:41:39.227Z,76.90
2022-08-26T16:44:11.344Z,78.70
2022-08-26T16:46:41.144Z,80.40
2022-08-26T16:49:09.453Z,81.70
2022-08-26T16:51:38.527Z,84.50
2022-08-26T16:54:08.790Z,86.40
2022-08-26T16:56:38.573Z,91.30
2022-08-26T16:59:11.433Z,93.40
2022-08-26T17:01:39.875Z,95.10
2022-08-26T17:04:08.189Z,95.70
2022-08-26T17:06:36.775Z,96.40
2022-08-26T17:09:05.392Z,95.90
2022-08-26T17:11:33.764Z,96.60
2022-08-26T17:14:02.854Z,96.20
2022-08-26T17:16:32.899Z,97.40
2022-08-26T17:19:02.620Z,97.40
2022-08-26T17:21:30.960Z,97.40
2022-08-26T17:23:59.628Z,97.40
2022-08-26T17:26:28.947Z,97.40
2022-08-26T17:29:17.556Z,97.40
2022-08-26T17:31:49.877Z,97.40
2022-08-26T17:34:57.884Z,97.40
2022-08-26T17:37:26.146Z,97.40
2022-08-26T17:39:54.581Z,97.40
2022-08-26T17:42:22.983Z,97.40
2022-08-26T17:45:00.232Z,97.40
2022-08-26T17:47:29.839Z,97.40
2022-08-26T17:49:58.400Z,97.40
2022-08-26T17:52:26.664Z,97.40
2022-08-26T17:54:56.333Z,97.40
2022-08-26T17:57:27.062Z,97.40
2022-08-26T17:59:55.890Z,97.40
2022-08-26T18:02:24.374Z,97.40
2022-08-26T18:04:54.077Z,97.40
2022-08-26T18:07:22.305Z,97.40
2022-08-26T18:09:50.806Z,97.40
2022-08-26T18:12:19.121Z,97.40
2022-08-26T18:14:47.404Z,97.40
2022-08-26T18:17:19.409Z,97.40
2022-08-26T18:19:47.931Z,97.40
2022-08-26T18:22:17.535Z,97.40
2022-08-26T18:24:56.530Z,97.40
2022-08-26T18:27:27.475Z,97.40
2022-08-26T18:29:55.956Z,97.40
2022-08-26T18:32:24.247Z,97.40
2022-08-26T18:34:52.487Z,97.40
2022-08-26T18:37:22.128Z,97.40
2022-08-26T18:39:50.423Z,97.40
2022-08-26T18:42:18.714Z,97.40
2022-08-26T18:44:48.405Z,97.40
2022-08-26T18:47:16.691Z,97.40
2022-08-26T18:49:44.930Z,97.40
2022-08-26T18:52:13.236Z,97.40
2022-08-26T18:54:42.896Z,97.40
2022-08-26T18:57:12.211Z,97.40
2022-08-26T18:59:40.898Z,97.40
2022-08-26T19:02:09.868Z,97.40
2022-08-26T19:04:39.325Z,97.40
2022-08-26T19:07:08.666Z,97.40
2022-08-26T19:09:36.939Z,97.40
2022-08-26T19:12:08.268Z,97.40
2022-08-26T19:14:37.243Z,97.40
2022-08-26T19:17:05.811Z,97.40
2022-08-26T19:19:34.314Z,97.40
2022-08-26T19:22:02.862Z,97.40
2022-08-26T19:24:31.364Z,97.40
2022-08-26T19:27:02.228Z,97.40
2022-08-26T19:29:35.442Z,97.40
2022-08-26T19:32:04.270Z,97.40
2022-08-26T19:34:32.603Z,97.40
2022-08-26T19:37:00.903Z,97.40
2022-08-26T19:39:29.377Z,97.40
2022-08-26T19:41:57.627Z,97.40
2022-08-26T19:44:43.522Z,97.40
2022-08-26T19:47:14.020Z,97.40
2022-08-26T19:49:42.310Z,97.40
2022-08-26T19:52:12.112Z,97.40
2022-08-26T19:54:41.199Z,97.40
2022-08-26T19:57:09.404Z,97.40
2022-08-26T19:59:37.667Z,97.40
2022-08-26T20:02:10.551Z,97.40
2022-08-26T20:04:41.762Z,97.40
2022-08-26T20:07:13.061Z,97.40
2022-08-26T20:09:44.980Z,97.40
2022-08-26T20:12:13.351Z,97.40
2022-08-26T20:14:41.576Z,97.40
2022-08-26T20:17:09.842Z,97.40
2022-08-26T20:19:55.814Z,97.40
2022-08-26T20:22:25.816Z,97.40
2022-08-26T20:24:54.112Z,97.40
2022-08-26T20:27:38.335Z,97.40
2022-08-26T20:30:09.938Z,97.40
2022-08-26T20:32:39.384Z,97.40
2022-08-26T20:35:11.408Z,97.40
2022-08-26T20:37:42.327Z,97.40
2022-08-26T20:40:16.133Z,97.40
2022-08-26T20:42:44.496Z,97.40
2022-08-26T20:45:13.160Z,97.40
2022-08-26T20:47:41.658Z,97.40
2022-08-26T20:50:10.756Z,97.40
2022-08-26T20:52:40.369Z,97.40
2022-08-26T20:55:09.887Z,97.40
2022-08-26T20:57:38.307Z,97.40
2022-08-26T21:00:08.522Z,97.40
2022-08-26T21:02:37.124Z,97.40
2022-08-26T21:05:06.523Z,97.40
2022-08-26T21:07:35.957Z,97.40
2022-08-26T21:10:06.576Z,97.40
2022-08-26T21:12:35.470Z,97.40
2022-08-26T21:15:04.169Z,97.40
2022-08-26T21:17:32.511Z,97.40
2022-08-26T21:20:01.173Z,97.40
2022-08-26T21:22:30.616Z,97.40
2022-08-26T21:24:59.689Z,97.40
2022-08-26T21:27:29.499Z,97.40
2022-08-26T21:29:58.129Z,97.40
2022-08-26T21:32:26.431Z,97.40
2022-08-26T21:34:56.880Z,97.40
2022-08-26T21:37:26.208Z,97.40
2022-08-26T21:39:56.150Z,97.40
2022-08-26T21:42:26.288Z,97.40
2022-08-26T21:44:55.943Z,97.40
2022-08-26T21:47:24.656Z,97.40
2022-08-26T21:49:53.588Z,97.40
2022-08-26T21:52:22.246Z,97.40
2022-08-26T21:54:50.569Z,97.40
2022-08-26T21:57:19.321Z,97.40
2022-08-26T21:59:47.564Z,97.40
2022-08-26T22:02:17.399Z,97.40
2022-08-26T22:04:48.695Z,97.40
2022-08-26T22:07:19.183Z,97.40
2022-08-26T22:09:49.202Z,97.40
2022-08-26T22:12:18.995Z,97.40
2022-08-26T22:14:48.102Z,97.40
2022-08-26T22:17:17.712Z,97.40
2022-08-26T22:19:46.735Z,97.40
2022-08-26T22:22:16.153Z,97.40
2022-08-26T22:24:44.365Z,97.40
2022-08-26T22:27:14.009Z,97.40
2022-08-26T22:29:42.679Z,97.40
2022-08-26T22:32:11.032Z,97.40
2022-08-26T22:34:41.840Z,97.40
2022-08-26T22:37:10.043Z,97.40
2022-08-26T22:39:41.802Z,97.40
2022-08-26T22:42:11.214Z,97.40
2022-08-26T22:44:41.149Z,97.40
2022-08-26T22:47:09.437Z,97.40
2022-08-26T22:49:37.694Z,97.40
2022-08-26T22:52:07.271Z,97.40
2022-08-26T22:54:35.483Z,97.40
2022-08-26T22:57:03.757Z,97.40
2022-08-26T22:59:32.072Z,97.40
2022-08-26T23:02:00.292Z,97.40
2022-08-26T23:04:28.532Z,97.40
2022-08-26T23:06:56.800Z,97.40
2022-08-26T23:09:26.355Z,97.40
2022-08-26T23:11:55.878Z,97.40
2022-08-26T23:14:25.616Z,97.40
2022-08-26T23:16:54.624Z,97.40
2022-08-26T23:19:37.744Z,97.40
2022-08-26T23:22:18.672Z,97.40
2022-08-26T23:24:48.242Z,97.40
2022-08-26T23:27:16.592Z,97.40
2022-08-26T23:29:44.843Z,97.40
2022-08-26T23:32:13.115Z,97.40
2022-08-26T23:34:59.518Z,97.40
2022-08-26T23:37:31.888Z,97.40
2022-08-26T23:40:05.552Z,97.40
2022-08-26T23:42:34.525Z,97.40
2022-08-26T23:45:02.951Z,97.40
2022-08-26T23:47:31.244Z,97.40
2022-08-26T23:49:59.544Z,97.40
2022-08-26T23:52:45.701Z,97.40
2022-08-26T23:55:15.821Z,97.40
2022-08-26T23:57:44.183Z,97.40
